createdAt,value
2022-10-31T00:01:27.599Z,13.91
2022-10-31T00:03:55.507Z,14.02
2022-10-31T00:06:24.377Z,13.97
2022-10-31T00:08:58.006Z,13.96
2022-10-31T00:11:26.118Z,13.85
2022-10-31T00:13:53.592Z,13.75
2022-10-31T00:16:25.969Z,14.12
2022-10-31T00:18:55.532Z,14.28
2022-10-31T00:21:24.109Z,14.12
2022-10-31T00:23:51.599Z,13.95
2022-10-31T00:26:19.423Z,14.05
2022-10-31T00:28:47.139Z,14.03
2022-10-31T00:31:15.610Z,14.04
2022-10-31T00:33:43.614Z,13.91
2022-10-31T00:36:17.277Z,13.84
2022-10-31T00:38:45.993Z,13.86
2022-10-31T00:41:16.731Z,13.95
2022-10-31T00:43:44.751Z,13.87
2022-10-31T00:46:13.238Z,13.79
2022-10-31T00:48:42.082Z,13.73
2022-10-31T00:51:11.211Z,13.91
2022-10-31T00:53:40.383Z,13.79
2022-10-31T00:56:08.121Z,13.82
2022-10-31T00:58:36.026Z,13.82
2022-10-31T01:01:03.603Z,13.76
2022-10-31T01:03:33.888Z,13.65
2022-10-31T01:06:07.074Z,13.64
2022-10-31T01:08:38.232Z,13.60
2022-10-31T01:11:18.040Z,13.55
2022-10-31T01:13:46.600Z,13.56
2022-10-31T01:16:17.227Z,13.51
2022-10-31T01:18:44.668Z,13.56
2022-10-31T01:21:18.071Z,13.53
2022-10-31T01:23:45.703Z,13.68
2022-10-31T01:26:24.073Z,13.75
2022-10-31T01:28:52.996Z,13.94
2022-10-31T01:31:22.606Z,13.85
2022-10-31T01:33:50.174Z,13.91
2022-10-31T01:36:30.421Z,13.84
2022-10-31T01:39:05.440Z,13.75
2022-10-31T01:41:36.133Z,13.59
2022-10-31T01:44:24.850Z,13.43
2022-10-31T01:47:00.958Z,13.48
2022-10-31T01:49:50.082Z,13.21
2022-10-31T01:52:29.048Z,13.33
2022-10-31T01:55:02.749Z,13.15
2022-10-31T01:57:33.342Z,13.06
2022-10-31T02:00:07.777Z,12.94
2022-10-31T02:02:41.572Z,13.02
2022-10-31T02:05:17.969Z,12.97
2022-10-31T02:07:54.293Z,12.96
2022-10-31T02:10:30.577Z,12.94
2022-10-31T02:13:01.404Z,12.82
2022-10-31T02:15:31.630Z,12.85
2022-10-31T02:17:59.807Z,12.77
2022-10-31T02:20:35.069Z,12.72
2022-10-31T02:23:19.821Z,12.81
2022-10-31T02:26:05.954Z,12.76
2022-10-31T02:29:07.058Z,12.82
2022-10-31T02:32:20.489Z,12.72
2022-10-31T02:34:50.769Z,12.76
2022-10-31T02:37:52.732Z,12.75
2022-10-31T02:40:43.791Z,12.78
2022-10-31T02:44:09.610Z,12.73
2022-10-31T02:47:00.726Z,12.97
2022-10-31T02:49:41.646Z,12.83
2022-10-31T02:52:20.550Z,12.71
2022-10-31T02:54:49.997Z,12.65
2022-10-31T02:57:21.886Z,12.68
2022-10-31T02:59:52.329Z,12.69
2022-10-31T03:02:25.651Z,12.73
2022-10-31T03:05:17.110Z,12.70
2022-10-31T03:07:54.396Z,12.69
2022-10-31T03:10:41.859Z,12.59
2022-10-31T03:13:48.137Z,12.63
2022-10-31T03:16:33.004Z,12.58
2022-10-31T03:19:18.920Z,12.61
2022-10-31T03:21:54.136Z,12.68
2022-10-31T03:24:26.959Z,12.55
2022-10-31T03:26:57.958Z,12.58
2022-10-31T03:29:29.720Z,12.59
2022-10-31T03:32:04.668Z,12.53
2022-10-31T03:34:33.307Z,12.61
2022-10-31T03:37:04.866Z,12.67
2022-10-31T03:39:34.379Z,12.64
2022-10-31T03:42:15.227Z,12.53
2022-10-31T03:44:57.034Z,12.50
2022-10-31T03:47:24.759Z,12.52
2022-10-31T03:49:52.503Z,12.53
2022-10-31T03:52:35.345Z,12.57
2022-10-31T03:55:40.642Z,12.54
2022-10-31T03:58:28.394Z,12.56
2022-10-31T04:00:58.883Z,12.61
2022-10-31T04:03:35.814Z,12.56
2022-10-31T04:06:11.153Z,12.50
2022-10-31T04:08:47.860Z,12.50
2022-10-31T04:11:22.606Z,12.53
2022-10-31T04:14:09.898Z,12.56
2022-10-31T04:16:40.211Z,12.61
2022-10-31T04:19:07.853Z,12.59
2022-10-31T04:21:35.167Z,12.58
2022-10-31T04:24:02.415Z,12.66
2022-10-31T04:26:31.216Z,12.74
2022-10-31T04:28:58.896Z,12.64
2022-10-31T04:31:28.359Z,12.51
2022-10-31T04:33:55.949Z,12.30
2022-10-31T04:36:23.875Z,12.51
2022-10-31T04:38:51.262Z,12.44
2022-10-31T04:41:33.248Z,12.39
2022-10-31T04:44:03.058Z,12.41
2022-10-31T04:46:31.322Z,12.45
2022-10-31T04:49:02.634Z,12.44
2022-10-31T04:51:30.102Z,12.35
2022-10-31T04:53:58.878Z,12.25
2022-10-31T04:56:29.328Z,12.29
2022-10-31T04:58:59.749Z,12.19
2022-10-31T05:01:32.732Z,12.25
2022-10-31T05:04:01.297Z,12.22
2022-10-31T05:06:29.713Z,12.21
2022-10-31T05:08:57.822Z,12.28
2022-10-31T05:11:25.410Z,12.52
2022-10-31T05:13:54.943Z,12.45
2022-10-31T05:16:54.733Z,12.48
2022-10-31T05:19:47.966Z,12.47
2022-10-31T05:22:52.931Z,12.53
2022-10-31T05:25:24.469Z,12.52
2022-10-31T05:27:53.365Z,12.65
2022-10-31T05:30:28.854Z,12.68
2022-10-31T05:32:56.387Z,12.58
2022-10-31T05:35:36.059Z,12.68
2022-10-31T05:38:29.693Z,12.75
2022-10-31T05:41:04.274Z,13.04
2022-10-31T05:43:34.749Z,12.95
2022-10-31T05:46:05.597Z,12.91
2022-10-31T05:48:51.175Z,13.10
2022-10-31T05:51:37.059Z,13.10
2022-10-31T05:54:05.635Z,13.15
2022-10-31T05:56:33.007Z,13.22
2022-10-31T05:59:00.910Z,13.20
2022-10-31T06:01:28.527Z,13.18
2022-10-31T06:03:58.251Z,13.37
2022-10-31T06:06:25.701Z,13.34
2022-10-31T06:08:53.084Z,13.41
2022-10-31T06:11:23.170Z,13.67
2022-10-31T06:14:02.661Z,13.82
2022-10-31T06:16:46.323Z,13.92
2022-10-31T06:19:42.639Z,13.94
2022-10-31T06:22:14.985Z,14.07
2022-10-31T06:24:44.272Z,13.98
2022-10-31T06:27:27.963Z,13.90
2022-10-31T06:29:55.802Z,13.95
2022-10-31T06:32:32.279Z,14.18
2022-10-31T06:34:59.629Z,14.46
2022-10-31T06:37:26.960Z,14.50
2022-10-31T06:40:01.003Z,14.57
2022-10-31T06:42:28.416Z,14.75
2022-10-31T06:44:55.880Z,14.85
2022-10-31T06:48:03.607Z,14.93
2022-10-31T06:50:32.276Z,15.07
2022-10-31T06:53:01.798Z,15.03
2022-10-31T06:55:29.732Z,15.18
2022-10-31T06:58:03.135Z,15.47
2022-10-31T07:00:31.980Z,15.71
2022-10-31T07:03:07.881Z,15.65
2022-10-31T07:05:36.938Z,15.89
2022-10-31T07:08:07.915Z,15.71
2022-10-31T07:10:40.361Z,15.68
2022-10-31T07:13:15.512Z,16.02
2022-10-31T07:15:50.293Z,16.28
2022-10-31T07:18:18.000Z,16.32
2022-10-31T07:20:45.302Z,16.46
2022-10-31T07:23:13.500Z,16.42
2022-10-31T07:25:46.538Z,16.52
2022-10-31T07:28:20.800Z,16.79
2022-10-31T07:30:52.894Z,16.94
2022-10-31T07:33:23.241Z,16.91
2022-10-31T07:36:11.952Z,17.34
2022-10-31T07:38:42.275Z,17.52
2022-10-31T07:41:10.934Z,17.43
2022-10-31T07:43:42.650Z,17.60
2022-10-31T07:46:18.832Z,17.18
2022-10-31T07:49:04.618Z,17.38
2022-10-31T07:51:58.237Z,17.41
2022-10-31T07:54:44.050Z,17.17
2022-10-31T07:57:11.365Z,17.41
2022-10-31T07:59:39.616Z,18.08
2022-10-31T08:02:09.924Z,18.13
2022-10-31T08:04:49.720Z,18.24
2022-10-31T08:07:38.904Z,18.05
2022-10-31T08:10:08.807Z,18.34
2022-10-31T08:12:36.379Z,18.68
2022-10-31T08:15:08.366Z,18.45
2022-10-31T08:17:37.871Z,18.79
2022-10-31T08:20:06.900Z,18.81
2022-10-31T08:22:43.655Z,18.93
2022-10-31T08:25:11.824Z,19.08
2022-10-31T08:27:39.979Z,19.22
2022-10-31T08:30:11.125Z,19.26
2022-10-31T08:32:40.928Z,19.43
2022-10-31T08:35:44.737Z,19.80
2022-10-31T08:38:37.850Z,19.84
2022-10-31T08:41:05.327Z,19.93
2022-10-31T08:43:33.465Z,20.21
2022-10-31T08:46:02.977Z,20.24
2022-10-31T08:48:30.749Z,20.35
2022-10-31T08:50:59.860Z,20.78
2022-10-31T08:53:28.872Z,20.99
2022-10-31T08:56:25.256Z,21.00
2022-10-31T08:58:55.013Z,21.06
2022-10-31T09:01:32.093Z,21.04
2022-10-31T09:03:59.663Z,21.15
2022-10-31T09:06:27.748Z,21.33
2022-10-31T09:08:55.293Z,21.50
2022-10-31T09:11:25.843Z,21.51
2022-10-31T09:14:11.513Z,21.71
2022-10-31T09:16:57.111Z,21.92
2022-10-31T09:19:31.876Z,22.16
2022-10-31T09:21:59.202Z,21.96
2022-10-31T09:24:27.466Z,22.18
2022-10-31T09:26:54.767Z,22.14
2022-10-31T09:29:27.729Z,22.11
2022-10-31T09:31:59.214Z,21.98
2022-10-31T09:34:29.140Z,22.33
2022-10-31T09:37:22.279Z,22.17
2022-10-31T09:39:50.146Z,22.43
2022-10-31T09:42:36.407Z,22.77
2022-10-31T09:45:30.947Z,22.81
2022-10-31T09:48:23.284Z,22.37
2022-10-31T09:51:05.990Z,22.56
2022-10-31T09:53:53.251Z,22.90
2022-10-31T09:56:25.850Z,23.17
2022-10-31T09:59:01.852Z,23.04
2022-10-31T10:01:41.447Z,23.13
2022-10-31T10:04:30.476Z,23.55
2022-10-31T10:07:49.936Z,23.94
2022-10-31T10:10:33.770Z,23.81
2022-10-31T10:13:51.642Z,23.89
2022-10-31T10:16:51.379Z,24.69
2022-10-31T10:19:36.782Z,24.15
2022-10-31T10:22:23.074Z,24.32
2022-10-31T10:24:59.452Z,24.17
2022-10-31T10:27:53.971Z,24.39
2022-10-31T10:30:34.650Z,24.47
2022-10-31T10:33:09.632Z,24.27
2022-10-31T10:35:44.688Z,23.90
2022-10-31T10:38:18.900Z,24.27
2022-10-31T10:40:47.668Z,24.71
2022-10-31T10:43:40.417Z,24.75
2022-10-31T10:46:45.305Z,24.96
2022-10-31T10:49:20.424Z,25.13
2022-10-31T10:52:13.133Z,25.00
2022-10-31T10:55:19.943Z,24.75
2022-10-31T10:57:57.734Z,25.10
2022-10-31T11:00:32.752Z,25.13
2022-10-31T11:03:00.866Z,25.47
2022-10-31T11:05:52.485Z,25.20
2022-10-31T11:08:28.397Z,25.00
2022-10-31T11:11:07.620Z,25.15
2022-10-31T11:13:37.584Z,25.41
2022-10-31T11:16:10.217Z,25.36
2022-10-31T11:18:46.871Z,25.53
2022-10-31T11:21:28.142Z,25.68
2022-10-31T11:24:10.584Z,26.27
2022-10-31T11:26:43.092Z,26.42
2022-10-31T11:29:26.153Z,25.96
2022-10-31T11:31:58.356Z,25.91
2022-10-31T11:34:34.687Z,26.14
2022-10-31T11:37:24.805Z,25.92
2022-10-31T11:40:00.202Z,26.13
2022-10-31T11:42:31.763Z,26.32
2022-10-31T11:44:59.403Z,26.63
2022-10-31T11:47:31.197Z,26.83
2022-10-31T11:50:03.168Z,26.79
2022-10-31T11:52:33.616Z,27.41
2022-10-31T11:55:32.471Z,28.24
2022-10-31T11:58:00.241Z,29.10
2022-10-31T12:00:32.779Z,29.30
2022-10-31T12:03:24.458Z,29.77
2022-10-31T12:06:06.985Z,28.82
2022-10-31T12:08:37.400Z,28.48
2022-10-31T12:11:16.605Z,28.12
2022-10-31T12:14:16.434Z,28.34
2022-10-31T12:17:00.594Z,27.98
2022-10-31T12:20:03.001Z,27.25
2022-10-31T12:22:58.072Z,26.90
2022-10-31T12:25:55.054Z,27.28
2022-10-31T12:28:49.910Z,27.24
2022-10-31T12:31:30.591Z,26.94
2022-10-31T12:34:12.797Z,26.91
2022-10-31T12:37:04.687Z,27.38
2022-10-31T12:39:37.879Z,27.18
2022-10-31T12:42:39.700Z,26.49
2022-10-31T12:45:09.764Z,26.44
2022-10-31T12:47:44.692Z,26.56
2022-10-31T12:50:14.814Z,26.68
2022-10-31T12:53:02.435Z,26.70
2022-10-31T12:56:02.118Z,26.70
2022-10-31T12:58:41.775Z,26.64
2022-10-31T13:01:16.053Z,26.53
2022-10-31T13:04:03.062Z,26.72
2022-10-31T13:06:51.751Z,26.52
2022-10-31T13:09:31.845Z,26.88
2022-10-31T13:12:11.841Z,26.98
2022-10-31T13:14:48.711Z,26.85
2022-10-31T13:17:42.818Z,26.90
2022-10-31T13:20:25.942Z,26.83
2022-10-31T13:23:48.327Z,26.84
2022-10-31T13:26:23.861Z,26.41
2022-10-31T13:29:05.302Z,26.52
2022-10-31T13:31:32.818Z,26.62
2022-10-31T13:34:11.288Z,26.63
2022-10-31T13:37:22.637Z,26.32
2022-10-31T13:40:05.031Z,26.17
2022-10-31T13:42:47.112Z,26.00
2022-10-31T13:45:20.088Z,26.00
2022-10-31T13:48:16.786Z,25.96
2022-10-31T13:50:57.272Z,25.97
2022-10-31T13:53:52.047Z,26.08
2022-10-31T13:56:21.950Z,26.00
2022-10-31T13:59:26.685Z,25.81
2022-10-31T14:02:00.985Z,25.66
2022-10-31T14:04:38.353Z,25.49
2022-10-31T14:07:16.520Z,25.59
2022-10-31T14:09:52.761Z,25.71
2022-10-31T14:12:27.794Z,25.55
2022-10-31T14:14:58.614Z,25.28
2022-10-31T14:17:29.071Z,25.07
2022-10-31T14:20:11.945Z,24.93
2022-10-31T14:22:42.881Z,24.99
2022-10-31T14:25:30.744Z,24.88
2022-10-31T14:27:59.853Z,24.97
2022-10-31T14:30:29.995Z,25.01
2022-10-31T14:33:03.545Z,24.95
2022-10-31T14:36:08.345Z,24.85
2022-10-31T14:38:44.621Z,24.75
2022-10-31T14:41:20.462Z,24.56
2022-10-31T14:44:38.686Z,24.34
2022-10-31T14:47:40.964Z,24.19
2022-10-31T14:50:33.265Z,24.06
2022-10-31T14:53:04.954Z,23.97
2022-10-31T14:55:33.124Z,23.78
2022-10-31T14:58:07.554Z,23.59
2022-10-31T15:00:37.075Z,23.40
2022-10-31T15:03:19.443Z,23.28
2022-10-31T15:05:52.494Z,23.13
2022-10-31T15:08:40.782Z,23.01
2022-10-31T15:11:16.926Z,22.92
2022-10-31T15:13:54.369Z,22.69
2022-10-31T15:19:08.329Z,22.29
2022-10-31T15:21:43.135Z,22.12
2022-10-31T15:24:19.940Z,22.02
2022-10-31T15:26:51.312Z,21.81
2022-10-31T15:29:23.750Z,21.70
2022-10-31T15:32:19.730Z,21.50
2022-10-31T15:34:47.152Z,21.52
2022-10-31T15:37:17.431Z,21.17
2022-10-31T15:39:48.519Z,21.24
2022-10-31T15:42:21.299Z,21.04
2022-10-31T15:44:54.340Z,21.05
2022-10-31T15:47:27.933Z,21.05
2022-10-31T15:49:57.033Z,21.00
2022-10-31T15:52:42.398Z,20.97
2022-10-31T15:55:16.958Z,20.90
2022-10-31T15:57:46.626Z,20.59
2022-10-31T16:00:30.553Z,20.62
2022-10-31T16:03:31.252Z,20.62
2022-10-31T16:06:05.030Z,20.46
2022-10-31T16:08:32.308Z,20.38
2022-10-31T16:11:25.156Z,20.43
2022-10-31T16:14:07.386Z,20.38
2022-10-31T16:16:41.361Z,20.21
2022-10-31T16:19:25.372Z,20.16
2022-10-31T16:22:03.482Z,20.21
2022-10-31T16:24:34.411Z,20.16
2022-10-31T16:27:07.244Z,19.98
2022-10-31T16:29:34.635Z,20.08
2022-10-31T16:32:02.182Z,19.94
2022-10-31T16:34:29.513Z,19.94
2022-10-31T16:36:56.924Z,19.82
2022-10-31T16:39:26.417Z,19.66
2022-10-31T16:41:57.125Z,19.57
2022-10-31T16:44:27.078Z,19.49
2022-10-31T16:47:10.687Z,19.49
2022-10-31T16:49:38.215Z,19.47
2022-10-31T16:52:07.006Z,19.39
2022-10-31T16:54:34.316Z,19.42
2022-10-31T16:57:03.821Z,19.30
2022-10-31T16:59:33.152Z,18.97
2022-10-31T17:02:01.781Z,19.16
2022-10-31T17:04:29.627Z,19.09
2022-10-31T17:06:57.087Z,19.07
2022-10-31T17:09:24.397Z,19.04
2022-10-31T17:11:54.333Z,18.99
2022-10-31T17:14:22.411Z,18.97
2022-10-31T17:16:50.446Z,18.87
2022-10-31T17:19:17.864Z,18.84
2022-10-31T17:21:45.550Z,18.75
2022-10-31T17:24:15.307Z,18.75
2022-10-31T17:26:43.330Z,18.55
2022-10-31T17:29:10.731Z,18.77
2022-10-31T17:31:39.546Z,18.67
2022-10-31T17:34:08.859Z,18.70
2022-10-31T17:36:36.417Z,18.92
2022-10-31T17:39:09.961Z,18.93
2022-10-31T17:41:37.372Z,18.73
2022-10-31T17:44:04.955Z,18.65
2022-10-31T17:46:32.417Z,18.61
2022-10-31T17:49:02.618Z,18.50
2022-10-31T17:51:30.114Z,18.31
2022-10-31T17:53:59.217Z,18.37
2022-10-31T17:56:26.991Z,18.23
2022-10-31T17:58:57.373Z,18.18
2022-10-31T18:01:25.150Z,18.10
2022-10-31T18:03:52.796Z,17.99
2022-10-31T18:06:21.605Z,18.24
2022-10-31T18:08:48.944Z,17.95
2022-10-31T18:11:22.248Z,18.01
2022-10-31T18:13:58.593Z,18.14
2022-10-31T18:16:26.686Z,18.26
2022-10-31T18:18:58.840Z,18.15
2022-10-31T18:21:26.708Z,17.88
2022-10-31T18:23:58.654Z,17.79
2022-10-31T18:26:27.727Z,17.80
2022-10-31T18:28:55.758Z,17.74
2022-10-31T18:31:23.411Z,17.69
2022-10-31T18:33:54.953Z,17.73
2022-10-31T18:36:22.937Z,17.62
2022-10-31T18:38:50.442Z,17.40
2022-10-31T18:41:17.892Z,17.65
2022-10-31T18:43:45.384Z,17.69
2022-10-31T18:46:15.394Z,17.70
2022-10-31T18:48:44.710Z,17.54
2022-10-31T18:51:18.590Z,17.52
2022-10-31T18:53:57.144Z,17.51
2022-10-31T18:56:25.201Z,17.45
2022-10-31T18:58:52.906Z,17.33
2022-10-31T19:01:23.188Z,17.18
2022-10-31T19:03:55.993Z,17.16
2022-10-31T19:06:25.501Z,16.97
2022-10-31T19:08:59.327Z,16.83
2022-10-31T19:11:27.527Z,16.94
2022-10-31T19:13:55.063Z,16.97
2022-10-31T19:16:22.350Z,16.88
2022-10-31T19:18:49.820Z,16.82
2022-10-31T19:21:18.511Z,16.67
2022-10-31T19:23:46.449Z,16.70
2022-10-31T19:26:14.597Z,16.62
2022-10-31T19:28:42.758Z,16.68
2022-10-31T19:31:10.781Z,16.94
2022-10-31T19:33:38.790Z,16.90
2022-10-31T19:36:15.202Z,16.89
2022-10-31T19:38:48.068Z,16.88
2022-10-31T19:41:22.167Z,16.96
2022-10-31T19:43:50.048Z,16.83
2022-10-31T19:46:22.695Z,16.79
2022-10-31T19:49:06.794Z,16.73
2022-10-31T19:51:34.350Z,16.76
2022-10-31T19:54:01.800Z,16.61
2022-10-31T19:56:29.630Z,16.62
2022-10-31T19:59:00.023Z,16.69
2022-10-31T20:01:28.591Z,16.63
2022-10-31T20:03:56.115Z,16.65
2022-10-31T20:06:28.163Z,16.53
2022-10-31T20:08:56.781Z,16.65
2022-10-31T20:11:26.617Z,16.50
2022-10-31T20:13:58.644Z,16.67
2022-10-31T20:16:27.342Z,16.66
2022-10-31T20:18:55.273Z,16.49
2022-10-31T20:21:26.623Z,16.29
2022-10-31T20:24:01.502Z,16.12
2022-10-31T20:26:31.382Z,16.16
2022-10-31T20:29:00.420Z,16.09
2022-10-31T20:31:31.729Z,16.11
2022-10-31T20:33:59.216Z,16.37
2022-10-31T20:36:28.964Z,16.32
2022-10-31T20:38:56.332Z,16.43
2022-10-31T20:41:23.959Z,16.42
2022-10-31T20:43:52.513Z,16.24
2022-10-31T20:46:22.374Z,16.34
2022-10-31T20:48:50.619Z,16.31
2022-10-31T20:51:21.713Z,16.31
2022-10-31T20:53:51.044Z,16.27
2022-10-31T20:56:20.665Z,16.12
2022-10-31T20:58:50.691Z,16.09
2022-10-31T21:01:21.207Z,16.17
2022-10-31T21:03:49.356Z,16.11
2022-10-31T21:06:18.455Z,16.08
2022-10-31T21:08:45.942Z,16.02
2022-10-31T21:11:18.876Z,15.86
2022-10-31T21:13:47.775Z,15.87
2022-10-31T21:16:19.540Z,15.83
2022-10-31T21:18:48.126Z,15.72
2022-10-31T21:21:29.170Z,15.75
2022-10-31T21:24:02.125Z,15.61
2022-10-31T21:26:33.723Z,15.64
2022-10-31T21:29:02.624Z,15.52
2022-10-31T21:31:30.029Z,15.49
2022-10-31T21:33:57.320Z,15.41
2022-10-31T21:36:26.514Z,15.41
2022-10-31T21:38:55.149Z,15.36
2022-10-31T21:41:24.699Z,15.49
2022-10-31T21:43:54.568Z,15.65
2022-10-31T21:46:30.714Z,15.79
2022-10-31T21:48:58.465Z,15.63
2022-10-31T21:51:35.922Z,15.50
2022-10-31T21:54:23.706Z,15.49
2022-10-31T21:56:51.889Z,15.66
2022-10-31T21:59:19.290Z,15.65
2022-10-31T22:01:46.802Z,15.52
2022-10-31T22:04:14.363Z,15.51
2022-10-31T22:06:41.772Z,15.49
2022-10-31T22:09:11.948Z,15.55
2022-10-31T22:11:41.093Z,16.00
2022-10-31T22:14:12.092Z,15.90
2022-10-31T22:16:40.126Z,15.77
2022-10-31T22:19:10.246Z,15.58
2022-10-31T22:21:42.990Z,15.50
2022-10-31T22:24:11.246Z,15.32
2022-10-31T22:26:39.520Z,15.34
2022-10-31T22:29:12.053Z,15.19
2022-10-31T22:31:42.086Z,15.24
2022-10-31T22:34:10.351Z,15.17
2022-10-31T22:36:38.320Z,15.03
2022-10-31T22:39:06.739Z,15.01
2022-10-31T22:41:36.598Z,14.84
2022-10-31T22:44:05.710Z,14.83
2022-10-31T22:46:36.032Z,14.80
2022-10-31T22:49:06.919Z,14.64
2022-10-31T22:51:37.931Z,14.59
2022-10-31T22:54:08.027Z,14.80
2022-10-31T22:56:35.895Z,15.14
2022-10-31T22:59:03.848Z,15.03
2022-10-31T23:01:33.331Z,14.81
2022-10-31T23:04:02.173Z,14.79
2022-10-31T23:06:31.977Z,14.69
2022-10-31T23:09:04.768Z,14.77
2022-10-31T23:11:34.852Z,14.78
2022-10-31T23:14:14.066Z,14.63
2022-10-31T23:17:00.813Z,14.79
2022-10-31T23:19:30.907Z,15.65
2022-10-31T23:22:02.318Z,16.03
2022-10-31T23:24:39.406Z,15.96
2022-10-31T23:27:10.073Z,15.73
2022-10-31T23:29:37.687Z,15.52
2022-10-31T23:32:07.938Z,15.38
2022-10-31T23:34:35.419Z,15.35
2022-10-31T23:37:02.911Z,15.30
2022-10-31T23:39:30.481Z,15.21
2022-10-31T23:42:00.521Z,15.05
2022-10-31T23:44:29.118Z,14.83
2022-10-31T23:46:56.651Z,14.82
2022-10-31T23:49:24.108Z,14.79
2022-10-31T23:51:51.589Z,14.77
2022-10-31T23:54:19.152Z,14.79
2022-10-31T23:56:46.475Z,14.80
2022-10-31T23:59:13.796Z,14.79
